Kirishima Maru No.5 — JD2506 — position and weather

sailwx.info

Track history (hours):
 
Tides and Currents Weather Stations Pressure Air Temp Water Temp Dewpoint Dewpoint Depression Visibility Wind Speed Wind Dir Waves Ship Positions

Kirishima Maru No.5

Last reported at 2018-Apr-24 18:08 UTC. Time now 2018-Apr-25 08:35 UTC.
Position N 34°27' E 134°04'.

Length 105 m; draft 5.3 m.

Type: Tanker. MMSI: 431000338.

Date/timePositionNaut miles runAvg speedWind from/ knotsBaromVisibWave heightAir tempDewpointWater temp
2018-Apr-24 18:08N 34°27' E 134°04'415.4
2018-Apr-24 17:53N 34°26' E 134°08'615.0
2018-Apr-24 17:30N 34°24' E 134°15'814.2
2018-Apr-24 16:58N 34°26' E 134°24'714.6
2018-Apr-24 16:31N 34°29' E 134°32'714.3
2018-Apr-24 16:01N 34°31' E 134°40'714.3
2018-Apr-24 15:30N 34°34' E 134°48'714.0
2018-Apr-24 15:00N 34°37' E 134°55'612.0
2018-Apr-24 14:30N 34°36' E 135°03'611.8
2018-Apr-24 14:00N 34°31' E 135°04'715.0
2018-Apr-24 13:31N 34°23' E 135°03'714.8
2018-Apr-24 13:00N 34°17' E 134°59'714.3
2018-Apr-24 12:30N 34°09' E 134°59'815.2
2018-Apr-24 12:00N 34°02' E 134°59'815.2
2018-Apr-24 11:30N 33°54' E 134°59'714.1
2018-Apr-24 10:59N 33°48' E 135°03'15312.4
2018-Apr-23 22:43N 34°27' E 138°01'1014.5
2018-Apr-23 22:03N 34°28' E 138°13'115.0
2018-Apr-23 21:58N 34°29' E 138°14'814.4
2018-Apr-23 21:25N 34°29' E 138°24'714.2
2018-Apr-23 20:55N 34°30' E 138°32'614.5
2018-Apr-23 20:29N 34°31' E 138°40'814.3
2018-Apr-23 19:57N 34°32' E 138°49'613.6
2018-Apr-23 19:30N 34°32' E 138°56'713.0
2018-Apr-23 19:00N 34°36' E 139°03'612.9
2018-Apr-23 18:30N 34°41' E 139°08'712.4
2018-Apr-23 17:57N 34°46' E 139°15'612.8
2018-Apr-23 17:27N 34°50' E 139°20'612.9
2018-Apr-23 16:58N 34°54' E 139°26'612.7
2018-Apr-23 16:29N 34°58' E 139°32'714.4
2018-Apr-23 16:00N 35°03' E 139°38'714.7
2018-Apr-23 15:30N 35°08' E 139°44'713.7
2018-Apr-23 15:00N 35°15' E 139°46'612.6
2018-Apr-23 14:30N 35°20' E 139°42'713.7
2018-Apr-23 14:00N 35°27' E 139°46'5 9.0
2018-Apr-23 13:30N 35°31' E 139°46'0 0.0
2018-Apr-23 06:12N 35°31' E 139°46'0 0.2
2018-Apr-23 06:00N 35°31' E 139°46'2 4.6
2018-Apr-23 05:31N 35°30' E 139°44'4 7.6
2018-Apr-23 05:01N 35°26' E 139°44'2 3.7
2018-Apr-23 04:29N 35°24' E 139°45'0 0.0
2018-Apr-23 03:59N 35°24' E 139°45'0 0.0
2018-Apr-23 03:29N 35°24' E 139°45'0 0.0
2018-Apr-23 02:59N 35°24' E 139°45'0 0.0
2018-Apr-23 02:29N 35°24' E 139°45'0 0.1
2018-Apr-23 01:59N 35°24' E 139°45'4 9.1
2018-Apr-23 01:30N 35°20' E 139°43'612.2
2018-Apr-23 01:00N 35°15' E 139°47'713.1
2018-Apr-23 00:31N 35°08' E 139°46'713.9
2018-Apr-23 00:00N 35°01' E 139°44'712.5
2018-Apr-22 23:28N 34°55' E 139°45'1211.9
2018-Apr-22 22:28N 34°53' E 139°60'713.6
2018-Apr-22 21:58N 34°56' E 140°07'1313.7
2018-Apr-22 21:01N 35°02' E 140°21'113.3
2018-Apr-22 20:56N 35°03' E 140°22'  
2018-Apr-20 06:13N 34°59' E 140°15'514.7
2018-Apr-20 05:54N 34°57' E 140°10'614.7
2018-Apr-20 05:30N 34°54' E 140°04'1414.7
2018-Apr-20 04:32N 34°47' E 139°49'114.6
2018-Apr-20 04:30N 34°47' E 139°48'1114.4
2018-Apr-20 03:44N 34°42' E 139°36'515.0
2018-Apr-20 03:22N 34°40' E 139°30'616.4
2018-Apr-20 03:00N 34°38' E 139°23'916.0
2018-Apr-20 02:27N 34°36' E 139°12'716.0
2018-Apr-20 01:59N 34°34' E 139°04'816.0
2018-Apr-20 01:29N 34°32' E 138°54'1415.3
2018-Apr-20 00:34N 34°31' E 138°37'215.1
2018-Apr-20 00:26N 34°30' E 138°35'715.1
2018-Apr-19 23:59N 34°30' E 138°27'714.7
2018-Apr-19 23:31N 34°29' E 138°18'1614.9
2018-Apr-19 22:27N 34°27' E 137°59'15112.4
2018-Apr-19 10:12N 33°48' E 135°03'314.2
2018-Apr-19 09:58N 33°50' E 135°00'613.7
2018-Apr-19 09:30N 33°57' E 135°00'713.9
2018-Apr-19 09:00N 34°03' E 135°02'611.9
2018-Apr-19 08:30N 34°07' E 135°07'0 0.6
2018-Apr-19 07:53N 34°07' E 135°07'0 0.0
2018-Apr-19 07:23N 34°07' E 135°07'0 0.0
2018-Apr-19 06:53N 34°07' E 135°07'0 0.0
2018-Apr-19 06:26N 34°07' E 135°07'0 0.0
2018-Apr-19 05:53N 34°07' E 135°07'0 0.0
2018-Apr-19 05:29N 34°07' E 135°07'0 0.0
2018-Apr-19 04:59N 34°07' E 135°07'0 0.0
2018-Apr-19 04:26N 34°07' E 135°07'0 0.0
2018-Apr-19 03:59N 34°07' E 135°07'0 0.0
2018-Apr-19 03:26N 34°07' E 135°07'0 0.0
2018-Apr-19 02:53N 34°07' E 135°07'0 0.0
2018-Apr-19 02:29N 34°07' E 135°07'0 0.0
2018-Apr-19 01:59N 34°07' E 135°07'0 0.0
2018-Apr-19 01:30N 34°07' E 135°07'1 1.3
2018-Apr-19 00:58N 34°08' E 135°07'0 0.0
2018-Apr-19 00:28N 34°08' E 135°07'0 0.0
2018-Apr-18 23:58N 34°08' E 135°07'0 0.0
2018-Apr-18 23:28N 34°08' E 135°07'0 0.0
2018-Apr-18 22:58N 34°08' E 135°07'0 0.1
2018-Apr-18 22:28N 34°08' E 135°07'0 0.0
2018-Apr-18 21:58N 34°08' E 135°07'0 0.1
2018-Apr-18 21:28N 34°08' E 135°07'0 0.0
2018-Apr-18 20:58N 34°08' E 135°07'0 0.0
2018-Apr-18 20:28N 34°08' E 135°07'0 0.1
2018-Apr-18 19:58N 34°08' E 135°07'0 0.1
2018-Apr-18 19:28N 34°08' E 135°07'0 0.0
2018-Apr-18 18:58N 34°08' E 135°07'0 0.0
2018-Apr-18 18:22N 34°08' E 135°07'0 0.0
2018-Apr-18 17:58N 34°08' E 135°07'0 0.0
2018-Apr-18 17:28N 34°08' E 135°07'0 0.0
2018-Apr-18 16:58N 34°08' E 135°07'0 0.0
2018-Apr-18 16:28N 34°08' E 135°07'0 0.0
2018-Apr-18 15:58N 34°08' E 135°07'0 0.0
2018-Apr-18 15:28N 34°08' E 135°07'0 0.0
2018-Apr-18 14:58N 34°08' E 135°07'0 0.0
2018-Apr-18 14:28N 34°08' E 135°07'0 0.1
2018-Apr-18 13:58N 34°08' E 135°07'0 0.1
2018-Apr-18 13:28N 34°08' E 135°07'0 0.0
2018-Apr-18 12:58N 34°08' E 135°07'0 0.1
2018-Apr-18 12:28N 34°08' E 135°07'0 0.0
2018-Apr-18 11:58N 34°08' E 135°07'0 0.0
2018-Apr-18 11:28N 34°08' E 135°07'0 0.0
2018-Apr-18 10:58N 34°08' E 135°07'0 0.1
2018-Apr-18 10:28N 34°08' E 135°07'3 5.8
2018-Apr-18 10:00N 34°07' E 135°04'714.4
2018-Apr-18 09:30N 34°01' E 135°00'714.4
2018-Apr-18 09:00N 33°53' E 135°01'713.2
2018-Apr-18 08:29N 33°47' E 135°04'15912.7
2018-Apr-17 19:56N 34°28' E 138°10'1014.4
2018-Apr-17 19:15N 34°29' E 138°21'414.3
2018-Apr-17 18:59N 34°30' E 138°26'914.3
2018-Apr-17 18:23N 34°31' E 138°36'1114.4
2018-Apr-17 17:39N 34°32' E 138°49'214.6
2018-Apr-17 17:30N 34°32' E 138°52'713.5
2018-Apr-17 17:00N 34°34' E 138°59'713.6
2018-Apr-17 16:30N 34°39' E 139°05'913.2
2018-Apr-17 15:51N 34°45' E 139°13'613.3
2018-Apr-17 15:25N 34°49' E 139°18'613.8
2018-Apr-17 15:00N 34°52' E 139°23'713.2
2018-Apr-17 14:29N 34°56' E 139°30'612.9
2018-Apr-17 14:00N 35°01' E 139°35'713.7
2018-Apr-17 13:30N 35°05' E 139°41'714.4
2018-Apr-17 13:00N 35°12' E 139°46'611.8
2018-Apr-17 12:31N 35°17' E 139°45'713.1
2018-Apr-17 12:01N 35°24' E 139°43'714.2
2018-Apr-17 11:31N 35°30' E 139°48'3 5.2
2018-Apr-17 11:00N 35°32' E 139°46'0 0.0
2018-Apr-17 04:55N 35°32' E 139°46'0 0.0
2018-Apr-17 01:37N 35°32' E 139°46'0 0.0
2018-Apr-17 00:13N 35°32' E 139°46'0 0.0
2018-Apr-17 00:00N 35°32' E 139°46'1 2.7
2018-Apr-16 23:30N 35°30' E 139°45'4 7.6
2018-Apr-16 23:00N 35°27' E 139°43'3 6.7
2018-Apr-16 22:30N 35°24' E 139°45'0 0.1
2018-Apr-16 22:00N 35°24' E 139°45'0 0.0
2018-Apr-16 21:30N 35°24' E 139°45'0 0.1
2018-Apr-16 21:00N 35°24' E 139°45'0 0.1
2018-Apr-16 20:30N 35°24' E 139°45'0 0.1
2018-Apr-16 20:00N 35°24' E 139°45'0 0.0
2018-Apr-16 19:30N 35°24' E 139°45'0 0.1
2018-Apr-16 18:57N 35°24' E 139°45'0 0.0
2018-Apr-16 18:30N 35°24' E 139°45'0 0.0
2018-Apr-16 18:00N 35°24' E 139°45'0 0.1
2018-Apr-16 17:30N 35°24' E 139°45'0 0.1
2018-Apr-16 16:57N 35°24' E 139°45'0 0.0
2018-Apr-16 16:30N 35°24' E 139°45'0 0.1
2018-Apr-16 16:00N 35°24' E 139°45'0 0.0
2018-Apr-16 15:30N 35°24' E 139°45'0 0.0
2018-Apr-16 15:00N 35°24' E 139°45'0 0.0
2018-Apr-16 14:30N 35°24' E 139°45'0 0.0
2018-Apr-16 14:00N 35°24' E 139°45'0 0.0
2018-Apr-16 13:30N 35°24' E 139°45'0 0.0
2018-Apr-16 13:00N 35°24' E 139°45'0 0.0
2018-Apr-16 12:30N 35°24' E 139°45'0 0.0
2018-Apr-16 12:00N 35°24' E 139°45'0 0.0
2018-Apr-16 11:30N 35°24' E 139°45'0 0.0
2018-Apr-16 11:00N 35°24' E 139°45'0 0.0
2018-Apr-16 10:30N 35°24' E 139°45'0 0.1
2018-Apr-16 10:00N 35°24' E 139°45'0 0.1
2018-Apr-16 09:30N 35°24' E 139°45'0 0.0
2018-Apr-16 09:00N 35°24' E 139°45'0 0.2
2018-Apr-16 08:30N 35°24' E 139°45'2 3.5
2018-Apr-16 08:00N 35°25' E 139°46'714.4
2018-Apr-16 07:30N 35°31' E 139°52'4 8.8
2018-Apr-16 07:00N 35°34' E 139°54'0 0.1
2018-Apr-16 06:30N 35°34' E 139°54'0 0.1
2018-Apr-16 06:00N 35°34' E 139°55'0 0.0
2018-Apr-16 05:27N 35°34' E 139°55'0 0.0
2018-Apr-16 05:00N 35°34' E 139°55'0 0.1
2018-Apr-16 04:30N 35°34' E 139°54'0 0.0
2018-Apr-16 03:00N 35°34' E 139°54'0 0.0
2018-Apr-16 02:24N 35°34' E 139°54'0 0.0
2018-Apr-16 01:51N 35°34' E 139°54'0 0.0
2018-Apr-16 01:30N 35°34' E 139°54'0 0.0
2018-Apr-16 00:54N 35°34' E 139°54'0 0.0
2018-Apr-16 00:18N 35°34' E 139°54'0 0.2
2018-Apr-16 00:00N 35°34' E 139°55'0 0.0
2018-Apr-15 23:30N 35°34' E 139°55'0 0.0
2018-Apr-15 23:00N 35°34' E 139°55'0 0.0
2018-Apr-15 22:30N 35°34' E 139°55'0 0.0
2018-Apr-15 21:42N 35°34' E 139°55'0 0.0
2018-Apr-15 21:18N 35°34' E 139°55'0 0.0
2018-Apr-15 20:48N 35°34' E 139°55'0 0.0
2018-Apr-15 20:24N 35°34' E 139°55'0 0.0
2018-Apr-15 20:00N 35°34' E 139°55'0 0.0
2018-Apr-15 18:48N 35°34' E 139°55'0 0.0
2018-Apr-15 17:12N 35°34' E 139°55'0 0.0
2018-Apr-15 16:54N 35°34' E 139°55'0 0.0
2018-Apr-15 16:18N 35°34' E 139°55'0 0.0
2018-Apr-15 16:00N 35°34' E 139°55'0 0.0
2018-Apr-15 15:24N 35°34' E 139°55'0 0.0
2018-Apr-15 14:54N 35°34' E 139°55'0 0.0
2018-Apr-15 14:24N 35°34' E 139°55'0 0.0
2018-Apr-15 13:42N 35°34' E 139°55'0 0.0
2018-Apr-15 13:27N 35°34' E 139°55'0 0.0
2018-Apr-15 13:00N 35°34' E 139°55'0 0.0
2018-Apr-15 12:24N 35°34' E 139°55'0 0.0
2018-Apr-15 11:54N 35°34' E 139°55'0 0.0
2018-Apr-15 11:30N 35°34' E 139°55'0 0.0
2018-Apr-15 10:36N 35°34' E 139°55'0 0.0
2018-Apr-15 10:30N 35°34' E 139°55'0 0.1
2018-Apr-15 09:54N 35°34' E 139°54'0 0.2
2018-Apr-15 09:27N 35°35' E 139°55'0 0.0
2018-Apr-15 09:00N 35°35' E 139°55'0 0.0
2018-Apr-15 08:18N 35°35' E 139°55'0 0.0
2018-Apr-15 07:57N 35°35' E 139°55'0 0.0
2018-Apr-15 07:27N 35°35' E 139°55'0 0.0
2018-Apr-15 07:00N 35°35' E 139°55'0 0.0
2018-Apr-15 05:54N 35°35' E 139°55'0 0.0
2018-Apr-15 04:39N 35°35' E 139°55'0 0.3
2018-Apr-15 04:30N 35°35' E 139°55'0 0.0
2018-Apr-15 03:21N 35°35' E 139°55'0 0.1
2018-Apr-15 02:54N 35°35' E 139°55'0 0.0
2018-Apr-15 02:18N 35°35' E 139°55'0 0.0
2018-Apr-15 01:54N 35°35' E 139°55'0 0.0
2018-Apr-15 01:27N 35°35' E 139°55'0 0.1
2018-Apr-15 00:57N 35°35' E 139°55'0 0.1
2018-Apr-15 00:30N 35°35' E 139°55'0 0.0
2018-Apr-15 00:00N 35°35' E 139°55'0 0.1
2018-Apr-14 23:30N 35°35' E 139°55'0 0.1
2018-Apr-14 23:00N 35°35' E 139°55'0 0.1
2018-Apr-14 22:27N 35°35' E 139°55'0 0.1
2018-Apr-14 21:57N 35°35' E 139°55'0 0.1
2018-Apr-14 21:27N 35°35' E 139°55'0 0.0
2018-Apr-14 21:00N 35°35' E 139°55'0 0.1
2018-Apr-14 20:30N 35°35' E 139°55'0 0.0
2018-Apr-14 19:57N 35°35' E 139°55'0 0.1
2018-Apr-14 19:30N 35°35' E 139°55'0 0.1
2018-Apr-14 19:00N 35°34' E 139°55'0 0.0
2018-Apr-14 18:24N 35°34' E 139°55'  
Track history (hours):
 
Tides and Currents Weather Stations Pressure Air Temp Water Temp Dewpoint Dewpoint Depression Visibility Wind Speed Wind Dir Waves Ship Positions

Kirishima Maru No.5

Last reported at 2018-Apr-24 18:08 UTC. Time now 2018-Apr-25 08:35 UTC.
Position N 34°27' E 134°04'.

Length 105 m; draft 5.3 m.

Type: Tanker. MMSI: 431000338.

Date/timePositionNaut miles runAvg speedWind from/ knotsBaromVisibWave heightAir tempDewpointWater temp
2018-Apr-24 18:08N 34°27' E 134°04'415.4
2018-Apr-24 17:53N 34°26' E 134°08'615.0
2018-Apr-24 17:30N 34°24' E 134°15'814.2
2018-Apr-24 16:58N 34°26' E 134°24'714.6
2018-Apr-24 16:31N 34°29' E 134°32'714.3
2018-Apr-24 16:01N 34°31' E 134°40'714.3
2018-Apr-24 15:30N 34°34' E 134°48'714.0
2018-Apr-24 15:00N 34°37' E 134°55'612.0
2018-Apr-24 14:30N 34°36' E 135°03'611.8
2018-Apr-24 14:00N 34°31' E 135°04'715.0
2018-Apr-24 13:31N 34°23' E 135°03'714.8
2018-Apr-24 13:00N 34°17' E 134°59'714.3
2018-Apr-24 12:30N 34°09' E 134°59'815.2
2018-Apr-24 12:00N 34°02' E 134°59'815.2
2018-Apr-24 11:30N 33°54' E 134°59'714.1
2018-Apr-24 10:59N 33°48' E 135°03'15312.4
2018-Apr-23 22:43N 34°27' E 138°01'1014.5
2018-Apr-23 22:03N 34°28' E 138°13'115.0
2018-Apr-23 21:58N 34°29' E 138°14'814.4
2018-Apr-23 21:25N 34°29' E 138°24'714.2
2018-Apr-23 20:55N 34°30' E 138°32'614.5
2018-Apr-23 20:29N 34°31' E 138°40'814.3
2018-Apr-23 19:57N 34°32' E 138°49'613.6
2018-Apr-23 19:30N 34°32' E 138°56'713.0
2018-Apr-23 19:00N 34°36' E 139°03'612.9
2018-Apr-23 18:30N 34°41' E 139°08'712.4
2018-Apr-23 17:57N 34°46' E 139°15'612.8
2018-Apr-23 17:27N 34°50' E 139°20'612.9
2018-Apr-23 16:58N 34°54' E 139°26'612.7
2018-Apr-23 16:29N 34°58' E 139°32'714.4
2018-Apr-23 16:00N 35°03' E 139°38'714.7
2018-Apr-23 15:30N 35°08' E 139°44'713.7
2018-Apr-23 15:00N 35°15' E 139°46'612.6
2018-Apr-23 14:30N 35°20' E 139°42'713.7
2018-Apr-23 14:00N 35°27' E 139°46'5 9.0
2018-Apr-23 13:30N 35°31' E 139°46'0 0.0
2018-Apr-23 06:12N 35°31' E 139°46'0 0.2
2018-Apr-23 06:00N 35°31' E 139°46'2 4.6
2018-Apr-23 05:31N 35°30' E 139°44'4 7.6
2018-Apr-23 05:01N 35°26' E 139°44'2 3.7
2018-Apr-23 04:29N 35°24' E 139°45'0 0.0
2018-Apr-23 03:59N 35°24' E 139°45'0 0.0
2018-Apr-23 03:29N 35°24' E 139°45'0 0.0
2018-Apr-23 02:59N 35°24' E 139°45'0 0.0
2018-Apr-23 02:29N 35°24' E 139°45'0 0.1
2018-Apr-23 01:59N 35°24' E 139°45'4 9.1
2018-Apr-23 01:30N 35°20' E 139°43'612.2
2018-Apr-23 01:00N 35°15' E 139°47'713.1
2018-Apr-23 00:31N 35°08' E 139°46'713.9
2018-Apr-23 00:00N 35°01' E 139°44'712.5
2018-Apr-22 23:28N 34°55' E 139°45'1211.9
2018-Apr-22 22:28N 34°53' E 139°60'713.6
2018-Apr-22 21:58N 34°56' E 140°07'1313.7
2018-Apr-22 21:01N 35°02' E 140°21'113.3
2018-Apr-22 20:56N 35°03' E 140°22'  
2018-Apr-20 06:13N 34°59' E 140°15'514.7
2018-Apr-20 05:54N 34°57' E 140°10'614.7
2018-Apr-20 05:30N 34°54' E 140°04'1414.7
2018-Apr-20 04:32N 34°47' E 139°49'114.6
2018-Apr-20 04:30N 34°47' E 139°48'1114.4
2018-Apr-20 03:44N 34°42' E 139°36'515.0
2018-Apr-20 03:22N 34°40' E 139°30'616.4
2018-Apr-20 03:00N 34°38' E 139°23'916.0
2018-Apr-20 02:27N 34°36' E 139°12'716.0
2018-Apr-20 01:59N 34°34' E 139°04'816.0
2018-Apr-20 01:29N 34°32' E 138°54'1415.3
2018-Apr-20 00:34N 34°31' E 138°37'215.1
2018-Apr-20 00:26N 34°30' E 138°35'715.1
2018-Apr-19 23:59N 34°30' E 138°27'714.7
2018-Apr-19 23:31N 34°29' E 138°18'1614.9
2018-Apr-19 22:27N 34°27' E 137°59'15112.4
2018-Apr-19 10:12N 33°48' E 135°03'314.2
2018-Apr-19 09:58N 33°50' E 135°00'613.7
2018-Apr-19 09:30N 33°57' E 135°00'713.9
2018-Apr-19 09:00N 34°03' E 135°02'611.9
2018-Apr-19 08:30N 34°07' E 135°07'0 0.6
2018-Apr-19 07:53N 34°07' E 135°07'0 0.0
2018-Apr-19 07:23N 34°07' E 135°07'0 0.0
2018-Apr-19 06:53N 34°07' E 135°07'0 0.0
2018-Apr-19 06:26N 34°07' E 135°07'0 0.0
2018-Apr-19 05:53N 34°07' E 135°07'0 0.0
2018-Apr-19 05:29N 34°07' E 135°07'0 0.0
2018-Apr-19 04:59N 34°07' E 135°07'0 0.0
2018-Apr-19 04:26N 34°07' E 135°07'0 0.0
2018-Apr-19 03:59N 34°07' E 135°07'0 0.0
2018-Apr-19 03:26N 34°07' E 135°07'0 0.0
2018-Apr-19 02:53N 34°07' E 135°07'0 0.0
2018-Apr-19 02:29N 34°07' E 135°07'0 0.0
2018-Apr-19 01:59N 34°07' E 135°07'0 0.0
2018-Apr-19 01:30N 34°07' E 135°07'1 1.3
2018-Apr-19 00:58N 34°08' E 135°07'0 0.0
2018-Apr-19 00:28N 34°08' E 135°07'0 0.0
2018-Apr-18 23:58N 34°08' E 135°07'0 0.0
2018-Apr-18 23:28N 34°08' E 135°07'0 0.0
2018-Apr-18 22:58N 34°08' E 135°07'0 0.1
2018-Apr-18 22:28N 34°08' E 135°07'0 0.0
2018-Apr-18 21:58N 34°08' E 135°07'0 0.1
2018-Apr-18 21:28N 34°08' E 135°07'0 0.0
2018-Apr-18 20:58N 34°08' E 135°07'0 0.0
2018-Apr-18 20:28N 34°08' E 135°07'0 0.1
2018-Apr-18 19:58N 34°08' E 135°07'0 0.1
2018-Apr-18 19:28N 34°08' E 135°07'0 0.0
2018-Apr-18 18:58N 34°08' E 135°07'0 0.0
2018-Apr-18 18:22N 34°08' E 135°07'0 0.0
2018-Apr-18 17:58N 34°08' E 135°07'0 0.0
2018-Apr-18 17:28N 34°08' E 135°07'0 0.0
2018-Apr-18 16:58N 34°08' E 135°07'0 0.0
2018-Apr-18 16:28N 34°08' E 135°07'0 0.0
2018-Apr-18 15:58N 34°08' E 135°07'0 0.0
2018-Apr-18 15:28N 34°08' E 135°07'0 0.0
2018-Apr-18 14:58N 34°08' E 135°07'0 0.0
2018-Apr-18 14:28N 34°08' E 135°07'0 0.1
2018-Apr-18 13:58N 34°08' E 135°07'0 0.1
2018-Apr-18 13:28N 34°08' E 135°07'0 0.0
2018-Apr-18 12:58N 34°08' E 135°07'0 0.1
2018-Apr-18 12:28N 34°08' E 135°07'0 0.0
2018-Apr-18 11:58N 34°08' E 135°07'0 0.0
2018-Apr-18 11:28N 34°08' E 135°07'0 0.0
2018-Apr-18 10:58N 34°08' E 135°07'0 0.1
2018-Apr-18 10:28N 34°08' E 135°07'3 5.8
2018-Apr-18 10:00N 34°07' E 135°04'714.4
2018-Apr-18 09:30N 34°01' E 135°00'714.4
2018-Apr-18 09:00N 33°53' E 135°01'713.2
2018-Apr-18 08:29N 33°47' E 135°04'15912.7
2018-Apr-17 19:56N 34°28' E 138°10'1014.4
2018-Apr-17 19:15N 34°29' E 138°21'414.3
2018-Apr-17 18:59N 34°30' E 138°26'914.3
2018-Apr-17 18:23N 34°31' E 138°36'1114.4
2018-Apr-17 17:39N 34°32' E 138°49'214.6
2018-Apr-17 17:30N 34°32' E 138°52'713.5
2018-Apr-17 17:00N 34°34' E 138°59'713.6
2018-Apr-17 16:30N 34°39' E 139°05'913.2
2018-Apr-17 15:51N 34°45' E 139°13'613.3
2018-Apr-17 15:25N 34°49' E 139°18'613.8
2018-Apr-17 15:00N 34°52' E 139°23'713.2
2018-Apr-17 14:29N 34°56' E 139°30'612.9
2018-Apr-17 14:00N 35°01' E 139°35'713.7
2018-Apr-17 13:30N 35°05' E 139°41'714.4
2018-Apr-17 13:00N 35°12' E 139°46'611.8
2018-Apr-17 12:31N 35°17' E 139°45'713.1
2018-Apr-17 12:01N 35°24' E 139°43'714.2
2018-Apr-17 11:31N 35°30' E 139°48'3 5.2
2018-Apr-17 11:00N 35°32' E 139°46'0 0.0
2018-Apr-17 04:55N 35°32' E 139°46'0 0.0
2018-Apr-17 01:37N 35°32' E 139°46'0 0.0
2018-Apr-17 00:13N 35°32' E 139°46'0 0.0
2018-Apr-17 00:00N 35°32' E 139°46'1 2.7
2018-Apr-16 23:30N 35°30' E 139°45'4 7.6
2018-Apr-16 23:00N 35°27' E 139°43'3 6.7
2018-Apr-16 22:30N 35°24' E 139°45'0 0.1
2018-Apr-16 22:00N 35°24' E 139°45'0 0.0
2018-Apr-16 21:30N 35°24' E 139°45'0 0.1
2018-Apr-16 21:00N 35°24' E 139°45'0 0.1
2018-Apr-16 20:30N 35°24' E 139°45'0 0.1
2018-Apr-16 20:00N 35°24' E 139°45'0 0.0
2018-Apr-16 19:30N 35°24' E 139°45'0 0.1
2018-Apr-16 18:57N 35°24' E 139°45'0 0.0
2018-Apr-16 18:30N 35°24' E 139°45'0 0.0
2018-Apr-16 18:00N 35°24' E 139°45'0 0.1
2018-Apr-16 17:30N 35°24' E 139°45'0 0.1
2018-Apr-16 16:57N 35°24' E 139°45'0 0.0
2018-Apr-16 16:30N 35°24' E 139°45'0 0.1
2018-Apr-16 16:00N 35°24' E 139°45'0 0.0
2018-Apr-16 15:30N 35°24' E 139°45'0 0.0
2018-Apr-16 15:00N 35°24' E 139°45'0 0.0
2018-Apr-16 14:30N 35°24' E 139°45'0 0.0
2018-Apr-16 14:00N 35°24' E 139°45'0 0.0
2018-Apr-16 13:30N 35°24' E 139°45'0 0.0
2018-Apr-16 13:00N 35°24' E 139°45'0 0.0
2018-Apr-16 12:30N 35°24' E 139°45'0 0.0
2018-Apr-16 12:00N 35°24' E 139°45'0 0.0
2018-Apr-16 11:30N 35°24' E 139°45'0 0.0
2018-Apr-16 11:00N 35°24' E 139°45'0 0.0
2018-Apr-16 10:30N 35°24' E 139°45'0 0.1
2018-Apr-16 10:00N 35°24' E 139°45'0 0.1
2018-Apr-16 09:30N 35°24' E 139°45'0 0.0
2018-Apr-16 09:00N 35°24' E 139°45'0 0.2
2018-Apr-16 08:30N 35°24' E 139°45'2 3.5
2018-Apr-16 08:00N 35°25' E 139°46'714.4
2018-Apr-16 07:30N 35°31' E 139°52'4 8.8
2018-Apr-16 07:00N 35°34' E 139°54'0 0.1
2018-Apr-16 06:30N 35°34' E 139°54'0 0.1
2018-Apr-16 06:00N 35°34' E 139°55'0 0.0
2018-Apr-16 05:27N 35°34' E 139°55'0 0.0
2018-Apr-16 05:00N 35°34' E 139°55'0 0.1
2018-Apr-16 04:30N 35°34' E 139°54'0 0.0
2018-Apr-16 03:00N 35°34' E 139°54'0 0.0
2018-Apr-16 02:24N 35°34' E 139°54'0 0.0
2018-Apr-16 01:51N 35°34' E 139°54'0 0.0
2018-Apr-16 01:30N 35°34' E 139°54'0 0.0
2018-Apr-16 00:54N 35°34' E 139°54'0 0.0
2018-Apr-16 00:18N 35°34' E 139°54'0 0.2
2018-Apr-16 00:00N 35°34' E 139°55'0 0.0
2018-Apr-15 23:30N 35°34' E 139°55'0 0.0
2018-Apr-15 23:00N 35°34' E 139°55'0 0.0
2018-Apr-15 22:30N 35°34' E 139°55'0 0.0
2018-Apr-15 21:42N 35°34' E 139°55'0 0.0
2018-Apr-15 21:18N 35°34' E 139°55'0 0.0
2018-Apr-15 20:48N 35°34' E 139°55'0 0.0
2018-Apr-15 20:24N 35°34' E 139°55'0 0.0
2018-Apr-15 20:00N 35°34' E 139°55'0 0.0
2018-Apr-15 18:48N 35°34' E 139°55'0 0.0
2018-Apr-15 17:12N 35°34' E 139°55'0 0.0
2018-Apr-15 16:54N 35°34' E 139°55'0 0.0
2018-Apr-15 16:18N 35°34' E 139°55'0 0.0
2018-Apr-15 16:00N 35°34' E 139°55'0 0.0
2018-Apr-15 15:24N 35°34' E 139°55'0 0.0
2018-Apr-15 14:54N 35°34' E 139°55'0 0.0
2018-Apr-15 14:24N 35°34' E 139°55'0 0.0
2018-Apr-15 13:42N 35°34' E 139°55'0 0.0
2018-Apr-15 13:27N 35°34' E 139°55'0 0.0
2018-Apr-15 13:00N 35°34' E 139°55'0 0.0
2018-Apr-15 12:24N 35°34' E 139°55'0 0.0
2018-Apr-15 11:54N 35°34' E 139°55'0 0.0
2018-Apr-15 11:30N 35°34' E 139°55'0 0.0
2018-Apr-15 10:36N 35°34' E 139°55'0 0.0
2018-Apr-15 10:30N 35°34' E 139°55'0 0.1
2018-Apr-15 09:54N 35°34' E 139°54'0 0.2
2018-Apr-15 09:27N 35°35' E 139°55'0 0.0
2018-Apr-15 09:00N 35°35' E 139°55'0 0.0
2018-Apr-15 08:18N 35°35' E 139°55'0 0.0
2018-Apr-15 07:57N 35°35' E 139°55'0 0.0
2018-Apr-15 07:27N 35°35' E 139°55'0 0.0
2018-Apr-15 07:00N 35°35' E 139°55'0 0.0
2018-Apr-15 05:54N 35°35' E 139°55'0 0.0
2018-Apr-15 04:39N 35°35' E 139°55'0 0.3
2018-Apr-15 04:30N 35°35' E 139°55'0 0.0
2018-Apr-15 03:21N 35°35' E 139°55'0 0.1
2018-Apr-15 02:54N 35°35' E 139°55'0 0.0
2018-Apr-15 02:18N 35°35' E 139°55'0 0.0
2018-Apr-15 01:54N 35°35' E 139°55'0 0.0
2018-Apr-15 01:27N 35°35' E 139°55'0 0.1
2018-Apr-15 00:57N 35°35' E 139°55'0 0.1
2018-Apr-15 00:30N 35°35' E 139°55'0 0.0
2018-Apr-15 00:00N 35°35' E 139°55'0 0.1
2018-Apr-14 23:30N 35°35' E 139°55'0 0.1
2018-Apr-14 23:00N 35°35' E 139°55'0 0.1
2018-Apr-14 22:27N 35°35' E 139°55'0 0.1
2018-Apr-14 21:57N 35°35' E 139°55'0 0.1
2018-Apr-14 21:27N 35°35' E 139°55'0 0.0
2018-Apr-14 21:00N 35°35' E 139°55'0 0.1
2018-Apr-14 20:30N 35°35' E 139°55'0 0.0
2018-Apr-14 19:57N 35°35' E 139°55'0 0.1
2018-Apr-14 19:30N 35°35' E 139°55'0 0.1
2018-Apr-14 19:00N 35°34' E 139°55'0 0.0
2018-Apr-14 18:24N 35°34' E 139°55'  

Dump ship's entire track history